Aeroporto :
LOGIN :

Iscrizione | Disclaimer

   EN    FR    IT 

 










Sommario :    VFR   VFR Marginale   IFR   IFR Intensivo   IFR Molto Intensivo
Visibilità : 
Base nubi : 
>= 8 km
>= 3000ft
5 / 8 km
1000 / 3000 ft
1500m / 5 km
500 / 1000 ft
800 / 1500m
200 / 500 ft
< 800m
< 200 ft
Simboli :   Temporali  Nebbia  Neve Forte  Precipitazioni Forti  Vento > 20 kt
SIGMETs :   Varie  Temporali  Ghiacco  Turbolenza  Onda orograficha  Ceneri Vulcaniche






- Altitudine del aeroporto : 359 ft
- Codice IATA : BVA


LFOB - Beauvais

ULTIMO METAR :
  • 231030Z AUTO 22013KT 9999 OVC013 12/10 Q1021 TEMPO OVC015 BECMG 22020G30KT

METARs OBSOLETI :
  • 231000Z AUTO 23016KT 9999 OVC015 12/09 Q1021 BECMG 22020G30KT OVC008
  • 230930Z AUTO 22014KT 9999 OVC015 12/09 Q1021 BECMG 22020G30KT OVC008
  • 230900Z AUTO 23013KT 9999 OVC014 12/09 Q1021 TEMPO 2000 DZRA OVC015 BECMG 22020G30KT
  • 230830Z AUTO 21014KT 9999 OVC013 11/09 Q1021 TEMPO 2000 DZRA OVC015 BECMG 22020G30KT
  • 230800Z AUTO 22016KT 9999 OVC009 11/09 Q1021 TEMPO 2000 DZRA OVC004 BECMG 22020G30KT

TAF TAF LFOB
Valido dal 23 a 06 ore il 24 a 06 ore UTC


230500Z 2306/2406 22020G30KT 9999 OVC008
TEMPO 2306/2310 2000 DZRA OVC004
TEMPO 2310/2313 OVC015
TEMPO 2313/2320 2000 DZRA OVC003
FM232000 30010KT 8000 RA OVC015
BECMG 2323/2403 18010KT 2000 DZRA OVC003
ATIS : +33 3 44 11 49 28



MetMap, La meteo Aeronautica in un colpo d'occhio ! - Copyright ORBIFLY Dicembre 2007 - Disclaimer

ORBIFLY MET'MAP TEAM :

Programmazione e sviluppo : Alexandra Zaïnal
Concezione : Baudouin d'Aumeries
Aiuto per la programmazione : Marc-Olivier Méhu
Supporto tecnico e logistico : Manuel Goepfert
Aiuto per la traduzione : Arnaldo La Scala

Contatto : metmap@orbifly.com




FONTI E CREDITI :

   NOAA